Time,TemperatureF,DewpointF,PressureIn,WindDirection,WindDirectionDegrees,WindSpeedMPH,WindSpeedGustMPH,Humidity,HourlyPrecipIn,Conditions,Clouds,dailyrainin,SoftwareType,DateUTC
2013-03-15 00:00:00,52.3,45.0,30.23,North,350,1.0,4.0,76,0.00,,,0.00,meteohub,2013-03-15 04:00:00,
2013-03-15 00:01:00,52.3,45.0,30.23,North,349,1.0,4.0,76,0.00,,,0.00,meteohub,2013-03-15 04:01:00,
2013-03-15 00:06:00,52.2,45.1,30.22,North,350,0.0,3.0,77,0.00,,,0.00,meteohub,2013-03-15 04:06:00,
2013-03-15 00:08:00,52.0,45.0,30.22,North,350,0.0,3.0,77,0.00,,,0.00,meteohub,2013-03-15 04:08:00,
2013-03-15 00:13:00,51.8,44.8,30.23,North,350,0.0,3.0,77,0.00,,,0.00,meteohub,2013-03-15 04:13:00,
2013-03-15 00:18:00,51.6,45.0,30.23,North,350,1.0,3.0,78,0.00,,,0.00,meteohub,2013-03-15 04:18:00,
2013-03-15 00:24:00,51.4,44.8,30.23,North,350,0.0,3.0,78,0.00,,,0.00,meteohub,2013-03-15 04:24:00,
2013-03-15 00:29:00,51.1,44.8,30.23,North,350,0.0,3.0,79,0.00,,,0.00,meteohub,2013-03-15 04:29:00,
2013-03-15 00:34:00,50.7,44.4,30.23,North,350,0.0,2.0,79,0.00,,,0.00,meteohub,2013-03-15 04:34:00,
2013-03-15 00:39:00,50.5,44.2,30.22,North,350,0.0,4.0,79,0.00,,,0.00,meteohub,2013-03-15 04:39:00,
2013-03-15 00:44:00,50.2,44.2,30.23,North,350,0.0,4.0,80,0.00,,,0.00,meteohub,2013-03-15 04:44:00,
2013-03-15 00:50:00,50.2,44.6,30.22,North,349,0.0,2.0,81,0.00,,,0.00,meteohub,2013-03-15 04:50:00,
2013-03-15 00:55:00,50.0,44.4,30.22,North,349,0.0,2.0,81,0.00,,,0.00,meteohub,2013-03-15 04:55:00,
2013-03-15 01:00:00,49.8,44.2,30.22,North,350,0.0,1.0,81,0.00,,,0.00,meteohub,2013-03-15 05:00:00,
2013-03-15 01:05:00,49.6,44.1,30.23,North,350,0.0,2.0,81,0.00,,,0.00,meteohub,2013-03-15 05:05:00,
2013-03-15 01:10:00,49.6,44.4,30.22,North,350,0.0,2.0,82,0.00,,,0.00,meteohub,2013-03-15 05:10:00,
2013-03-15 01:15:00,49.5,44.2,30.22,North,350,1.0,2.0,82,0.00,,,0.00,meteohub,2013-03-15 05:15:00,
2013-03-15 01:21:00,49.5,44.2,30.22,North,350,0.0,2.0,82,0.00,,,0.00,meteohub,2013-03-15 05:21:00,
2013-03-15 01:26:00,49.3,44.4,30.22,North,350,0.0,1.0,83,0.00,,,0.00,meteohub,2013-03-15 05:26:00,
2013-03-15 01:31:00,49.3,44.4,30.22,North,350,0.0,2.0,83,0.00,,,0.00,meteohub,2013-03-15 05:31:00,
2013-03-15 01:36:00,49.1,44.4,30.22,North,350,0.0,2.0,84,0.00,,,0.00,meteohub,2013-03-15 05:36:00,
2013-03-15 01:42:00,49.3,44.6,30.22,North,350,0.0,2.0,84,0.00,,,0.00,meteohub,2013-03-15 05:42:00,
2013-03-15 01:47:00,49.6,45.0,30.22,North,350,0.0,3.0,84,0.00,,,0.00,meteohub,2013-03-15 05:47:00,
2013-03-15 01:52:00,49.8,44.8,30.22,North,349,2.0,3.0,83,0.00,,,0.00,meteohub,2013-03-15 05:52:00,
2013-03-15 01:57:00,50.2,45.1,30.22,North,350,1.0,3.0,83,0.00,,,0.00,meteohub,2013-03-15 05:57:00,
2013-03-15 02:02:00,50.2,45.0,30.22,North,350,1.0,3.0,82,0.00,,,0.00,meteohub,2013-03-15 06:02:00,
2013-03-15 02:07:00,50.4,44.8,30.22,North,349,3.0,3.0,81,0.00,,,0.00,meteohub,2013-03-15 06:07:00,
2013-03-15 02:12:00,50.5,45.0,30.22,North,349,1.0,4.0,81,0.00,,,0.00,meteohub,2013-03-15 06:12:00,
2013-03-15 02:17:00,50.5,45.0,30.22,North,350,0.0,4.0,81,0.00,,,0.00,meteohub,2013-03-15 06:17:00,
2013-03-15 02:22:00,50.5,45.0,30.22,North,350,0.0,3.0,81,0.00,,,0.00,meteohub,2013-03-15 06:22:00,
2013-03-15 02:27:00,50.4,44.8,30.22,North,350,1.0,3.0,81,0.00,,,0.00,meteohub,2013-03-15 06:27:00,
2013-03-15 02:32:00,50.4,44.8,30.22,ENE,73,3.0,3.0,81,0.00,,,0.00,meteohub,2013-03-15 06:32:00,
2013-03-15 02:37:00,50.5,44.6,30.22,ENE,67,2.0,5.0,80,0.00,,,0.00,meteohub,2013-03-15 06:37:00,
2013-03-15 02:42:00,50.5,44.2,30.22,NE,38,1.0,5.0,79,0.00,,,0.00,meteohub,2013-03-15 06:42:00,
2013-03-15 02:48:00,50.5,44.2,30.22,NE,38,1.0,5.0,79,0.00,,,0.00,meteohub,2013-03-15 06:48:00,
2013-03-15 02:53:00,50.2,43.5,30.22,NE,38,1.0,5.0,78,0.00,,,0.00,meteohub,2013-03-15 06:53:00,
2013-03-15 02:58:00,49.8,42.6,30.22,NE,38,1.0,4.0,76,0.00,,,0.00,meteohub,2013-03-15 06:58:00,
2013-03-15 03:04:00,49.5,41.5,30.22,NE,38,0.0,4.0,74,0.00,,,0.00,meteohub,2013-03-15 07:04:00,
2013-03-15 03:09:00,49.3,41.0,30.22,NE,38,1.0,5.0,73,0.00,,,0.00,meteohub,2013-03-15 07:09:00,
2013-03-15 03:14:00,48.7,40.5,30.21,NE,38,0.0,5.0,73,0.00,,,0.00,meteohub,2013-03-15 07:14:00,
2013-03-15 03:19:00,48.4,40.5,30.22,NE,38,0.0,5.0,74,0.00,,,0.00,meteohub,2013-03-15 07:19:00,
2013-03-15 03:24:00,48.0,40.1,30.21,NE,38,0.0,3.0,74,0.00,,,0.00,meteohub,2013-03-15 07:24:00,
2013-03-15 03:30:00,47.7,39.7,30.22,NE,38,1.0,3.0,74,0.00,,,0.00,meteohub,2013-03-15 07:30:00,
2013-03-15 03:35:00,47.5,39.9,30.22,NE,38,1.0,3.0,75,0.00,,,0.00,meteohub,2013-03-15 07:35:00,
2013-03-15 03:40:00,47.5,39.9,30.22,NE,38,1.0,2.0,75,0.00,,,0.00,meteohub,2013-03-15 07:40:00,
2013-03-15 03:45:00,47.5,39.9,30.22,NE,38,0.0,2.0,75,0.00,,,0.00,meteohub,2013-03-15 07:45:00,
2013-03-15 03:51:00,47.1,39.6,30.22,NE,38,0.0,3.0,75,0.00,,,0.00,meteohub,2013-03-15 07:51:00,
2013-03-15 03:56:00,46.9,39.7,30.22,NE,38,0.0,3.0,76,0.00,,,0.00,meteohub,2013-03-15 07:56:00,
2013-03-15 04:02:00,46.8,39.9,30.22,NE,38,0.0,2.0,77,0.00,,,0.00,meteohub,2013-03-15 08:02:00,
2013-03-15 04:07:00,46.6,39.7,30.22,NE,38,0.0,2.0,77,0.00,,,0.00,meteohub,2013-03-15 08:07:00,
2013-03-15 04:12:00,46.2,39.7,30.21,NE,38,0.0,2.0,78,0.00,,,0.00,meteohub,2013-03-15 08:12:00,
2013-03-15 04:17:00,46.0,39.9,30.21,NE,38,0.0,1.0,79,0.00,,,0.00,meteohub,2013-03-15 08:17:00,
2013-03-15 04:22:00,45.9,39.4,30.21,NE,38,0.0,1.0,78,0.00,,,0.00,meteohub,2013-03-15 08:22:00,
2013-03-15 04:27:00,45.5,39.4,30.21,NE,38,0.0,1.0,79,0.00,,,0.00,meteohub,2013-03-15 08:27:00,
2013-03-15 04:32:00,45.1,39.4,30.21,NE,38,0.0,1.0,80,0.00,,,0.00,meteohub,2013-03-15 08:32:00,
2013-03-15 04:37:00,45.0,39.2,30.21,NE,38,0.0,1.0,80,0.00,,,0.00,meteohub,2013-03-15 08:37:00,
2013-03-15 04:42:00,44.6,38.8,30.21,NE,38,0.0,1.0,80,0.00,,,0.00,meteohub,2013-03-15 08:42:00,
2013-03-15 04:47:00,44.2,38.8,30.21,NE,38,0.0,1.0,81,0.00,,,0.00,meteohub,2013-03-15 08:47:00,
2013-03-15 04:52:00,44.1,38.8,30.21,NE,38,0.0,1.0,82,0.00,,,0.00,meteohub,2013-03-15 08:52:00,
2013-03-15 04:57:00,43.7,38.8,30.21,NE,38,0.0,1.0,83,0.00,,,0.00,meteohub,2013-03-15 08:57:00,
2013-03-15 05:02:00,43.5,38.7,30.21,NE,38,0.0,1.0,83,0.00,,,0.00,meteohub,2013-03-15 09:02:00,
2013-03-15 05:08:00,43.3,39.2,30.21,NE,38,0.0,1.0,85,0.00,,,0.00,meteohub,2013-03-15 09:08:00,
2013-03-15 05:13:00,43.2,38.7,30.21,NE,38,0.0,1.0,84,0.00,,,0.00,meteohub,2013-03-15 09:13:00,
2013-03-15 05:18:00,43.0,38.8,30.21,NE,38,0.0,1.0,85,0.00,,,0.00,meteohub,2013-03-15 09:18:00,
2013-03-15 05:23:00,43.0,39.0,30.22,NE,38,0.0,1.0,86,0.00,,,0.00,meteohub,2013-03-15 09:23:00,
2013-03-15 05:28:00,42.4,38.5,30.22,NE,38,0.0,1.0,86,0.00,,,0.00,meteohub,2013-03-15 09:28:00,
2013-03-15 05:34:00,42.3,38.3,30.22,NE,38,0.0,1.0,86,0.00,,,0.00,meteohub,2013-03-15 09:34:00,
2013-03-15 05:39:00,42.3,39.0,30.22,NE,38,0.0,1.0,88,0.00,,,0.00,meteohub,2013-03-15 09:39:00,
2013-03-15 05:44:00,42.3,39.0,30.22,NE,38,0.0,1.0,88,0.00,,,0.00,meteohub,2013-03-15 09:44:00,
2013-03-15 05:49:00,42.3,39.0,30.23,NE,38,0.0,1.0,88,0.00,,,0.00,meteohub,2013-03-15 09:49:00,
2013-03-15 05:54:00,41.9,38.7,30.23,NE,38,0.0,1.0,88,0.00,,,0.00,meteohub,2013-03-15 09:54:00,
2013-03-15 05:59:00,41.7,38.7,30.23,NE,38,0.0,1.0,89,0.00,,,0.00,meteohub,2013-03-15 09:59:00,
2013-03-15 06:05:00,41.7,39.0,30.23,NE,38,0.0,1.0,90,0.00,,,0.00,meteohub,2013-03-15 10:05:00,
2013-03-15 06:10:00,41.9,39.2,30.23,NE,38,0.0,1.0,90,0.00,,,0.00,meteohub,2013-03-15 10:10:00,
2013-03-15 06:15:00,42.1,39.6,30.23,NE,38,0.0,1.0,91,0.00,,,0.00,meteohub,2013-03-15 10:15:00,
2013-03-15 06:20:00,41.9,39.2,30.23,NE,38,0.0,1.0,90,0.00,,,0.00,meteohub,2013-03-15 10:20:00,
2013-03-15 06:26:00,41.7,39.0,30.23,NE,38,0.0,0.0,90,0.00,,,0.00,meteohub,2013-03-15 10:26:00,
2013-03-15 06:31:00,41.4,38.7,30.23,NE,38,0.0,0.0,90,0.00,,,0.00,meteohub,2013-03-15 10:31:00,
2013-03-15 06:36:00,41.4,39.0,30.23,NE,38,0.0,0.0,91,0.00,,,0.00,meteohub,2013-03-15 10:36:00,
2013-03-15 06:42:00,41.5,39.4,30.23,NE,38,0.0,0.0,92,0.00,,,0.00,meteohub,2013-03-15 10:42:00,
2013-03-15 06:47:00,41.7,39.6,30.23,NE,38,0.0,0.0,92,0.00,,,0.00,meteohub,2013-03-15 10:47:00,
2013-03-15 06:52:00,41.5,39.2,30.23,NE,38,0.0,0.0,91,0.00,,,0.00,meteohub,2013-03-15 10:52:00,
2013-03-15 06:57:00,41.7,39.6,30.23,NE,38,0.0,0.0,92,0.00,,,0.00,meteohub,2013-03-15 10:57:00,
2013-03-15 07:03:00,41.7,39.6,30.23,NE,38,0.0,0.0,92,0.00,,,0.00,meteohub,2013-03-15 11:03:00,
2013-03-15 07:08:00,42.1,40.3,30.23,NE,38,0.0,0.0,93,0.00,,,0.00,meteohub,2013-03-15 11:08:00,
2013-03-15 07:13:00,42.1,40.3,30.23,NE,38,0.0,0.0,93,0.00,,,0.00,meteohub,2013-03-15 11:13:00,
2013-03-15 07:19:00,42.1,40.3,30.23,NE,38,0.0,0.0,93,0.00,,,0.00,meteohub,2013-03-15 11:19:00,
2013-03-15 07:24:00,42.1,40.3,30.23,NE,38,0.0,0.0,93,0.00,,,0.00,meteohub,2013-03-15 11:24:00,
2013-03-15 07:29:00,42.1,39.9,30.23,NE,38,0.0,0.0,92,0.00,,,0.00,meteohub,2013-03-15 11:29:00,
2013-03-15 07:35:00,41.7,39.6,30.23,NE,38,0.0,0.0,92,0.00,,,0.00,meteohub,2013-03-15 11:35:00,
2013-03-15 07:40:00,41.7,39.9,30.23,NE,38,0.0,0.0,93,0.00,,,0.00,meteohub,2013-03-15 11:40:00,
2013-03-15 07:45:00,41.7,39.9,30.23,NE,38,0.0,0.0,93,0.00,,,0.00,meteohub,2013-03-15 11:45:00,
2013-03-15 07:50:00,42.1,40.3,30.24,NE,38,0.0,0.0,93,0.00,,,0.00,meteohub,2013-03-15 11:50:00,
2013-03-15 07:55:00,41.9,40.1,30.24,NE,38,0.0,0.0,93,0.00,,,0.00,meteohub,2013-03-15 11:55:00,
2013-03-15 08:00:00,41.7,39.9,30.24,NE,38,0.0,0.0,93,0.00,,,0.00,meteohub,2013-03-15 12:00:00,
2013-03-15 08:06:00,42.1,40.5,30.24,NE,38,0.0,0.0,94,0.00,,,0.00,meteohub,2013-03-15 12:06:00,
2013-03-15 08:11:00,42.6,41.0,30.24,NE,38,0.0,0.0,94,0.00,,,0.00,meteohub,2013-03-15 12:11:00,
2013-03-15 08:16:00,43.2,41.5,30.25,NE,38,0.0,0.0,94,0.00,,,0.00,meteohub,2013-03-15 12:16:00,
2013-03-15 08:22:00,43.5,41.9,30.25,NE,38,0.0,0.0,94,0.00,,,0.00,meteohub,2013-03-15 12:22:00,
2013-03-15 08:27:00,44.1,42.8,30.25,NE,38,0.0,0.0,95,0.00,,,0.00,meteohub,2013-03-15 12:27:00,
2013-03-15 08:32:00,44.4,43.2,30.25,NE,38,1.0,1.0,95,0.00,,,0.00,meteohub,2013-03-15 12:32:00,
2013-03-15 08:37:00,45.3,44.1,30.25,NE,38,0.0,2.0,95,0.00,,,0.00,meteohub,2013-03-15 12:37:00,
2013-03-15 08:42:00,46.6,45.1,30.25,NE,38,0.0,2.0,95,0.00,,,0.00,meteohub,2013-03-15 12:42:00,
2013-03-15 08:47:00,47.7,46.0,30.25,NE,38,1.0,2.0,94,0.00,,,0.00,meteohub,2013-03-15 12:47:00,
2013-03-15 08:52:00,48.9,46.9,30.25,NE,38,1.0,2.0,93,0.00,,,0.00,meteohub,2013-03-15 12:52:00,
2013-03-15 08:57:00,50.4,47.3,30.25,NE,38,1.0,2.0,89,0.00,,,0.00,meteohub,2013-03-15 12:57:00,
2013-03-15 09:02:00,51.8,46.8,30.26,NE,38,1.0,2.0,83,0.00,,,0.00,meteohub,2013-03-15 13:02:00,
2013-03-15 09:07:00,53.2,46.2,30.26,NE,38,1.0,2.0,77,0.00,,,0.00,meteohub,2013-03-15 13:07:00,
2013-03-15 09:12:00,54.7,46.2,30.26,NE,38,1.0,2.0,73,0.00,,,0.00,meteohub,2013-03-15 13:12:00,
2013-03-15 09:17:00,55.9,46.2,30.26,NE,38,0.0,2.0,70,0.00,,,0.00,meteohub,2013-03-15 13:17:00,
2013-03-15 09:22:00,57.4,46.6,30.26,NE,38,1.0,2.0,67,0.00,,,0.00,meteohub,2013-03-15 13:22:00,
2013-03-15 09:27:00,58.6,46.0,30.26,NE,38,1.0,2.0,63,0.00,,,0.00,meteohub,2013-03-15 13:27:00,
2013-03-15 09:32:00,60.1,44.4,30.26,NE,38,0.0,2.0,56,0.00,,,0.00,meteohub,2013-03-15 13:32:00,
2013-03-15 09:37:00,60.6,44.4,30.26,NE,38,1.0,3.0,55,0.00,,,0.00,meteohub,2013-03-15 13:37:00,
2013-03-15 09:42:00,61.7,43.3,30.26,NE,38,1.0,3.0,51,0.00,,,0.00,meteohub,2013-03-15 13:42:00,
2013-03-15 09:47:00,62.2,43.9,30.26,NE,38,1.0,3.0,51,0.00,,,0.00,meteohub,2013-03-15 13:47:00,
2013-03-15 09:52:00,62.4,42.4,30.26,NE,38,2.0,4.0,48,0.00,,,0.00,meteohub,2013-03-15 13:52:00,
2013-03-15 09:57:00,62.8,42.3,30.26,NE,38,2.0,4.0,47,0.00,,,0.00,meteohub,2013-03-15 13:57:00,
2013-03-15 10:02:00,63.1,41.5,30.26,NE,38,2.0,4.0,45,0.00,,,0.00,meteohub,2013-03-15 14:02:00,
2013-03-15 10:07:00,63.7,40.8,30.26,NE,38,2.0,4.0,43,0.00,,,0.00,meteohub,2013-03-15 14:07:00,
2013-03-15 10:12:00,63.9,39.7,30.26,NE,38,2.0,3.0,41,0.00,,,0.00,meteohub,2013-03-15 14:12:00,
2013-03-15 10:17:00,63.7,36.9,30.26,NE,38,2.0,4.0,37,0.00,,,0.00,meteohub,2013-03-15 14:17:00,
2013-03-15 10:22:00,63.3,36.7,30.26,NE,36,3.0,5.0,37,0.00,,,0.00,meteohub,2013-03-15 14:22:00,
2013-03-15 10:27:00,63.5,36.7,30.26,NE,40,1.0,5.0,37,0.00,,,0.00,meteohub,2013-03-15 14:27:00,
2013-03-15 10:33:00,63.9,34.9,30.27,SE,131,3.0,5.0,34,0.00,,,0.00,meteohub,2013-03-15 14:33:00,
2013-03-15 10:38:00,63.9,37.0,30.27,ESE,119,2.0,6.0,37,0.00,,,0.00,meteohub,2013-03-15 14:38:00,
2013-03-15 10:43:00,65.1,36.1,30.27,ESE,107,2.0,6.0,34,0.00,,,0.00,meteohub,2013-03-15 14:43:00,
2013-03-15 10:49:00,66.4,37.9,30.27,ESE,106,3.0,6.0,35,0.00,,,0.00,meteohub,2013-03-15 14:49:00,
2013-03-15 10:54:00,66.9,36.9,30.27,ESE,105,1.0,4.0,33,0.00,,,0.00,meteohub,2013-03-15 14:54:00,
2013-03-15 10:59:00,66.9,37.6,30.26,NE,41,4.0,5.0,34,0.00,,,0.00,meteohub,2013-03-15 14:59:00,
2013-03-15 11:04:00,66.6,37.4,30.26,NNE,25,2.0,6.0,34,0.00,,,0.00,meteohub,2013-03-15 15:04:00,
2013-03-15 11:09:00,66.7,38.3,30.26,NE,51,3.0,6.0,35,0.00,,,0.00,meteohub,2013-03-15 15:09:00,
2013-03-15 11:15:00,66.9,36.9,30.25,East,80,0.0,6.0,33,0.00,,,0.00,meteohub,2013-03-15 15:15:00,
2013-03-15 11:20:00,66.4,35.6,30.25,North,0,5.0,7.0,32,0.00,,,0.00,meteohub,2013-03-15 15:20:00,
2013-03-15 11:26:00,65.7,35.8,30.25,North,5,1.0,8.0,33,0.00,,,0.00,meteohub,2013-03-15 15:26:00,
2013-03-15 11:31:00,66.4,34.9,30.25,North,5,3.0,8.0,31,0.00,,,0.00,meteohub,2013-03-15 15:31:00,
2013-03-15 11:37:00,67.3,34.7,30.25,NE,35,2.0,8.0,30,0.00,,,0.00,meteohub,2013-03-15 15:37:00,
2013-03-15 11:42:00,67.5,33.3,30.25,NE,43,4.0,9.0,28,0.00,,,0.00,meteohub,2013-03-15 15:42:00,
2013-03-15 11:47:00,67.3,32.2,30.25,ESE,105,2.0,9.0,27,0.00,,,0.00,meteohub,2013-03-15 15:47:00,
2013-03-15 11:52:00,67.5,32.4,30.25,North,11,2.0,9.0,27,0.00,,,0.00,meteohub,2013-03-15 15:52:00,
2013-03-15 11:57:00,67.8,32.5,30.25,NNE,20,4.0,6.0,27,0.00,,,0.00,meteohub,2013-03-15 15:57:00,
2013-03-15 12:02:00,68.5,33.3,30.25,East,91,2.0,7.0,27,0.00,,,0.00,meteohub,2013-03-15 16:02:00,
2013-03-15 12:07:00,68.9,32.5,30.25,NE,50,3.0,7.0,26,0.00,,,0.00,meteohub,2013-03-15 16:07:00,
2013-03-15 12:12:00,68.4,33.1,30.25,NE,55,3.0,7.0,27,0.00,,,0.00,meteohub,2013-03-15 16:12:00,
2013-03-15 12:17:00,68.5,33.3,30.25,East,85,3.0,7.0,27,0.00,,,0.00,meteohub,2013-03-15 16:17:00,
2013-03-15 12:22:00,68.9,32.5,30.25,ENE,67,2.0,7.0,26,0.00,,,0.00,meteohub,2013-03-15 16:22:00,
2013-03-15 12:27:00,68.7,34.3,30.25,NE,42,2.0,6.0,28,0.00,,,0.00,meteohub,2013-03-15 16:27:00,
2013-03-15 12:32:00,69.3,32.9,30.25,ESE,114,3.0,6.0,26,0.00,,,0.00,meteohub,2013-03-15 16:32:00,
2013-03-15 12:37:00,69.3,33.8,30.25,ESE,114,0.0,6.0,27,0.00,,,0.00,meteohub,2013-03-15 16:37:00,
2013-03-15 12:42:00,69.4,33.1,30.25,ESE,118,2.0,6.0,26,0.00,,,0.00,meteohub,2013-03-15 16:42:00,
2013-03-15 12:47:00,69.4,34.9,30.25,NNE,17,1.0,5.0,28,0.00,,,0.00,meteohub,2013-03-15 16:47:00,
2013-03-15 12:52:00,69.4,34.9,30.24,NW,325,2.0,6.0,28,0.00,,,0.00,meteohub,2013-03-15 16:52:00,
2013-03-15 12:57:00,69.4,33.1,30.23,SE,132,0.0,6.0,26,0.00,,,0.00,meteohub,2013-03-15 16:57:00,
2013-03-15 13:02:00,69.8,34.3,30.23,ESE,113,3.0,6.0,27,0.00,,,0.00,meteohub,2013-03-15 17:02:00,
2013-03-15 13:07:00,70.0,36.3,30.23,WSW,244,2.0,5.0,29,0.00,,,0.00,meteohub,2013-03-15 17:07:00,
2013-03-15 13:13:00,69.8,37.0,30.23,West,264,0.0,5.0,30,0.00,,,0.00,meteohub,2013-03-15 17:13:00,
2013-03-15 13:15:00,70.0,36.3,30.23,West,269,5.0,5.0,29,0.00,,,0.00,meteohub,2013-03-15 17:15:00,
2013-03-15 13:22:00,70.3,36.5,30.22,WNW,293,3.0,6.0,29,0.00,,,0.00,meteohub,2013-03-15 17:22:00,
2013-03-15 13:27:00,70.0,37.0,30.22,WSW,240,3.0,7.0,30,0.00,,,0.00,meteohub,2013-03-15 17:27:00,
2013-03-15 13:32:00,69.8,37.0,30.22,WNW,282,4.0,7.0,30,0.00,,,0.00,meteohub,2013-03-15 17:32:00,
2013-03-15 13:37:00,69.6,36.9,30.22,WNW,302,4.0,9.0,30,0.00,,,0.00,meteohub,2013-03-15 17:37:00,
2013-03-15 13:42:00,70.0,37.0,30.22,WNW,286,6.0,9.0,30,0.00,,,0.00,meteohub,2013-03-15 17:42:00,
2013-03-15 13:47:00,69.6,38.5,30.21,West,261,6.0,8.0,32,0.00,,,0.00,meteohub,2013-03-15 17:47:00,
2013-03-15 13:53:00,69.1,37.9,30.21,WNW,290,5.0,8.0,32,0.00,,,0.00,meteohub,2013-03-15 17:53:00,
2013-03-15 13:58:00,68.9,37.8,30.21,WNW,286,5.0,8.0,32,0.00,,,0.00,meteohub,2013-03-15 17:58:00,
2013-03-15 14:03:00,69.3,37.4,30.22,NW,307,6.0,8.0,31,0.00,,,0.00,meteohub,2013-03-15 18:03:00,
2013-03-15 14:08:00,69.1,37.2,30.21,West,279,6.0,8.0,31,0.00,,,0.00,meteohub,2013-03-15 18:08:00,
2013-03-15 14:14:00,68.7,36.9,30.21,West,270,5.0,9.0,31,0.00,,,0.00,meteohub,2013-03-15 18:14:00,
2013-03-15 14:19:00,68.4,36.5,30.21,WNW,289,4.0,9.0,31,0.00,,,0.00,meteohub,2013-03-15 18:19:00,
2013-03-15 14:24:00,68.2,37.2,30.20,WNW,291,8.0,9.0,32,0.00,,,0.00,meteohub,2013-03-15 18:24:00,
2013-03-15 14:29:00,68.4,37.4,30.20,West,269,6.0,9.0,32,0.00,,,0.00,meteohub,2013-03-15 18:29:00,
2013-03-15 14:35:00,68.2,37.9,30.20,WNW,298,4.0,9.0,33,0.00,,,0.00,meteohub,2013-03-15 18:35:00,
2013-03-15 14:40:00,67.8,37.6,30.19,WNW,286,6.0,8.0,33,0.00,,,0.00,meteohub,2013-03-15 18:40:00,
2013-03-15 14:45:00,67.5,37.4,30.19,WNW,284,5.0,9.0,33,0.00,,,0.00,meteohub,2013-03-15 18:45:00,
2013-03-15 14:50:00,67.5,38.1,30.19,WNW,290,4.0,9.0,34,0.00,,,0.00,meteohub,2013-03-15 18:50:00,
2013-03-15 14:56:00,67.6,38.3,30.19,West,278,4.0,9.0,34,0.00,,,0.00,meteohub,2013-03-15 18:56:00,
2013-03-15 15:02:00,67.8,37.6,30.18,West,267,5.0,9.0,33,0.00,,,0.00,meteohub,2013-03-15 19:02:00,
2013-03-15 15:07:00,68.0,37.8,30.18,WNW,288,5.0,9.0,33,0.00,,,0.00,meteohub,2013-03-15 19:07:00,
2013-03-15 15:12:00,68.4,38.8,30.18,NW,304,2.0,9.0,34,0.00,,,0.00,meteohub,2013-03-15 19:12:00,
2013-03-15 15:17:00,68.9,37.8,30.18,WSW,256,3.0,9.0,32,0.00,,,0.00,meteohub,2013-03-15 19:17:00,
2013-03-15 15:22:00,68.9,38.7,30.18,WNW,296,2.0,9.0,33,0.00,,,0.00,meteohub,2013-03-15 19:22:00,
2013-03-15 15:27:00,68.9,38.7,30.18,NW,305,5.0,8.0,33,0.00,,,0.00,meteohub,2013-03-15 19:27:00,
2013-03-15 15:32:00,68.4,38.1,30.17,WNW,289,4.0,8.0,33,0.00,,,0.00,meteohub,2013-03-15 19:32:00,
2013-03-15 15:37:00,67.8,38.5,30.17,WNW,294,4.0,8.0,34,0.00,,,0.00,meteohub,2013-03-15 19:37:00,
2013-03-15 15:42:00,67.8,39.2,30.17,WSW,258,5.0,8.0,35,0.00,,,0.00,meteohub,2013-03-15 19:42:00,
2013-03-15 15:47:00,67.6,39.0,30.17,West,270,5.0,9.0,35,0.00,,,0.00,meteohub,2013-03-15 19:47:00,
2013-03-15 15:52:00,67.3,38.7,30.17,WNW,298,3.0,9.0,35,0.00,,,0.00,meteohub,2013-03-15 19:52:00,
2013-03-15 15:58:00,67.3,38.7,30.17,WNW,301,5.0,9.0,35,0.00,,,0.00,meteohub,2013-03-15 19:58:00,
2013-03-15 16:03:00,67.1,39.2,30.17,WSW,248,3.0,10.0,36,0.00,,,0.00,meteohub,2013-03-15 20:03:00,
2013-03-15 16:08:00,67.5,38.8,30.17,West,263,7.0,10.0,35,0.00,,,0.00,meteohub,2013-03-15 20:08:00,
2013-03-15 16:13:00,67.5,39.6,30.17,WNW,285,6.0,10.0,36,0.00,,,0.00,meteohub,2013-03-15 20:13:00,
2013-03-15 16:18:00,66.7,39.0,30.17,West,271,6.0,10.0,36,0.00,,,0.00,meteohub,2013-03-15 20:18:00,
2013-03-15 16:23:00,66.4,39.4,30.16,NW,312,4.0,11.0,37,0.00,,,0.00,meteohub,2013-03-15 20:23:00,
2013-03-15 16:29:00,66.6,40.8,30.16,WNW,292,3.0,11.0,39,0.00,,,0.00,meteohub,2013-03-15 20:29:00,
2013-03-15 16:34:00,66.0,39.7,30.16,West,262,7.0,11.0,38,0.00,,,0.00,meteohub,2013-03-15 20:34:00,
2013-03-15 16:39:00,66.0,40.3,30.16,WSW,256,6.0,11.0,39,0.00,,,0.00,meteohub,2013-03-15 20:39:00,
2013-03-15 16:45:00,66.4,41.9,30.16,WNW,297,3.0,11.0,41,0.00,,,0.00,meteohub,2013-03-15 20:45:00,
2013-03-15 16:50:00,66.2,41.2,30.15,West,275,4.0,10.0,40,0.00,,,0.00,meteohub,2013-03-15 20:50:00,
2013-03-15 16:55:00,66.4,41.4,30.15,WNW,288,3.0,10.0,40,0.00,,,0.00,meteohub,2013-03-15 20:55:00,
2013-03-15 17:00:00,66.4,41.9,30.15,WNW,290,6.0,10.0,41,0.00,,,0.00,meteohub,2013-03-15 21:00:00,
2013-03-15 17:05:00,66.0,40.3,30.15,West,261,3.0,10.0,39,0.00,,,0.00,meteohub,2013-03-15 21:05:00,
2013-03-15 17:11:00,66.0,40.3,30.15,West,267,6.0,10.0,39,0.00,,,0.00,meteohub,2013-03-15 21:11:00,
2013-03-15 17:16:00,66.2,39.9,30.15,West,266,2.0,10.0,38,0.00,,,0.00,meteohub,2013-03-15 21:16:00,
2013-03-15 17:22:00,66.4,39.9,30.15,WNW,286,4.0,9.0,38,0.00,,,0.00,meteohub,2013-03-15 21:22:00,
2013-03-15 17:27:00,66.2,41.7,30.15,West,259,5.0,9.0,41,0.00,,,0.00,meteohub,2013-03-15 21:27:00,
2013-03-15 17:32:00,66.4,41.9,30.15,West,281,4.0,9.0,41,0.00,,,0.00,meteohub,2013-03-15 21:32:00,
2013-03-15 17:37:00,66.2,41.7,30.15,West,271,3.0,8.0,41,0.00,,,0.00,meteohub,2013-03-15 21:37:00,
2013-03-15 17:42:00,65.7,41.9,30.15,WNW,300,5.0,8.0,42,0.00,,,0.00,meteohub,2013-03-15 21:42:00,
2013-03-15 17:47:00,65.7,41.9,30.15,WSW,249,6.0,9.0,42,0.00,,,0.00,meteohub,2013-03-15 21:47:00,
2013-03-15 17:53:00,65.8,42.1,30.15,WSW,257,3.0,9.0,42,0.00,,,0.00,meteohub,2013-03-15 21:53:00,
2013-03-15 17:58:00,65.7,42.6,30.15,West,277,6.0,9.0,43,0.00,,,0.00,meteohub,2013-03-15 21:58:00,
2013-03-15 18:03:00,65.1,42.6,30.15,WNW,292,5.0,9.0,44,0.00,,,0.00,meteohub,2013-03-15 22:03:00,
2013-03-15 18:08:00,64.8,43.0,30.15,NW,306,6.0,9.0,45,0.00,,,0.00,meteohub,2013-03-15 22:08:00,
2013-03-15 18:13:00,64.4,42.6,30.15,NW,306,6.0,8.0,45,0.00,,,0.00,meteohub,2013-03-15 22:13:00,
2013-03-15 18:18:00,64.0,42.3,30.15,WNW,284,6.0,8.0,45,0.00,,,0.00,meteohub,2013-03-15 22:18:00,
2013-03-15 18:24:00,63.7,42.4,30.15,WNW,292,5.0,8.0,46,0.00,,,0.00,meteohub,2013-03-15 22:24:00,
2013-03-15 18:29:00,63.3,42.8,30.15,WNW,292,3.0,9.0,47,0.00,,,0.00,meteohub,2013-03-15 22:29:00,
2013-03-15 18:34:00,63.1,43.7,30.15,WNW,292,3.0,9.0,49,0.00,,,0.00,meteohub,2013-03-15 22:34:00,
2013-03-15 18:39:00,63.1,44.2,30.15,WNW,290,3.0,9.0,50,0.00,,,0.00,meteohub,2013-03-15 22:39:00,
2013-03-15 18:44:00,63.1,44.8,30.15,West,275,3.0,8.0,51,0.00,,,0.00,meteohub,2013-03-15 22:44:00,
2013-03-15 18:49:00,63.0,45.1,30.15,NW,315,5.0,8.0,52,0.00,,,0.00,meteohub,2013-03-15 22:49:00,
2013-03-15 18:54:00,62.4,45.1,30.15,WNW,285,5.0,8.0,53,0.00,,,0.00,meteohub,2013-03-15 22:54:00,
2013-03-15 19:00:00,62.2,45.0,30.15,WNW,296,7.0,10.0,53,0.00,,,0.00,meteohub,2013-03-15 23:00:00,
2013-03-15 19:05:00,61.9,45.1,30.15,WNW,288,4.0,10.0,54,0.00,,,0.00,meteohub,2013-03-15 23:05:00,
2013-03-15 19:10:00,61.5,45.1,30.15,WNW,292,4.0,7.0,55,0.00,,,0.00,meteohub,2013-03-15 23:10:00,
2013-03-15 19:15:00,61.3,45.5,30.15,NW,304,4.0,7.0,56,0.00,,,0.00,meteohub,2013-03-15 23:15:00,
2013-03-15 19:21:00,61.2,45.3,30.15,WNW,303,2.0,7.0,56,0.00,,,0.00,meteohub,2013-03-15 23:21:00,
2013-03-15 19:26:00,60.6,45.3,30.15,WNW,282,1.0,8.0,57,0.00,,,0.00,meteohub,2013-03-15 23:26:00,
2013-03-15 19:31:00,60.4,45.7,30.15,WNW,282,3.0,8.0,58,0.00,,,0.00,meteohub,2013-03-15 23:31:00,
2013-03-15 19:37:00,60.1,45.7,30.15,WNW,282,5.0,8.0,59,0.00,,,0.00,meteohub,2013-03-15 23:37:00,
2013-03-15 19:42:00,59.7,45.9,30.15,WNW,283,4.0,6.0,60,0.00,,,0.00,meteohub,2013-03-15 23:42:00,
2013-03-15 19:47:00,59.5,46.0,30.15,WNW,283,1.0,6.0,61,0.00,,,0.00,meteohub,2013-03-15 23:47:00,
2013-03-15 19:52:00,59.4,46.4,30.15,WNW,283,2.0,6.0,62,0.00,,,0.00,meteohub,2013-03-15 23:52:00,
2013-03-15 19:57:00,59.2,46.6,30.15,WNW,283,0.0,5.0,63,0.00,,,0.00,meteohub,2013-03-15 23:57:00,
2013-03-15 20:03:00,58.8,46.2,30.15,WNW,283,0.0,4.0,63,0.00,,,0.00,meteohub,2013-03-16 00:03:00,
2013-03-15 20:08:00,58.5,46.8,30.15,WNW,283,1.0,3.0,65,0.00,,,0.00,meteohub,2013-03-16 00:08:00,
2013-03-15 20:13:00,58.3,46.6,30.15,WNW,283,1.0,3.0,65,0.00,,,0.00,meteohub,2013-03-16 00:13:00,
2013-03-15 20:18:00,58.1,46.8,30.15,WNW,283,0.0,2.0,66,0.00,,,0.00,meteohub,2013-03-16 00:18:00,
2013-03-15 20:24:00,57.9,46.9,30.15,WNW,283,1.0,3.0,67,0.00,,,0.00,meteohub,2013-03-16 00:24:00,
2013-03-15 20:29:00,57.7,46.9,30.15,WNW,283,0.0,3.0,67,0.00,,,0.00,meteohub,2013-03-16 00:29:00,
2013-03-15 20:34:00,57.6,46.8,30.15,WNW,283,0.0,3.0,67,0.00,,,0.00,meteohub,2013-03-16 00:34:00,
2013-03-15 20:39:00,57.4,46.9,30.15,WNW,283,0.0,2.0,68,0.00,,,0.00,meteohub,2013-03-16 00:39:00,
2013-03-15 20:44:00,57.0,46.6,30.15,WNW,283,0.0,1.0,68,0.00,,,0.00,meteohub,2013-03-16 00:44:00,
2013-03-15 20:50:00,56.8,46.8,30.15,WNW,283,0.0,1.0,69,0.00,,,0.00,meteohub,2013-03-16 00:50:00,
2013-03-15 20:55:00,56.5,46.8,30.15,WNW,283,0.0,1.0,70,0.00,,,0.00,meteohub,2013-03-16 00:55:00,
2013-03-15 21:00:00,56.1,46.4,30.15,WNW,283,0.0,1.0,70,0.00,,,0.00,meteohub,2013-03-16 01:00:00,
2013-03-15 21:05:00,55.8,46.6,30.15,WNW,283,0.0,0.0,71,0.00,,,0.00,meteohub,2013-03-16 01:05:00,
2013-03-15 21:10:00,55.4,46.6,30.16,WNW,283,0.0,0.0,72,0.00,,,0.00,meteohub,2013-03-16 01:10:00,
2013-03-15 21:15:00,55.0,46.9,30.15,WNW,283,0.0,0.0,74,0.00,,,0.00,meteohub,2013-03-16 01:15:00,
2013-03-15 21:21:00,54.7,46.9,30.16,WNW,283,0.0,0.0,75,0.00,,,0.00,meteohub,2013-03-16 01:21:00,
2013-03-15 21:26:00,54.3,46.6,30.15,WNW,283,0.0,0.0,75,0.00,,,0.00,meteohub,2013-03-16 01:26:00,
2013-03-15 21:31:00,54.1,46.8,30.16,WNW,283,0.0,0.0,76,0.00,,,0.00,meteohub,2013-03-16 01:31:00,
2013-03-15 21:37:00,53.8,46.8,30.16,WNW,283,0.0,0.0,77,0.00,,,0.00,meteohub,2013-03-16 01:37:00,
2013-03-15 21:42:00,53.6,46.9,30.16,WNW,283,0.0,0.0,78,0.00,,,0.00,meteohub,2013-03-16 01:42:00,
2013-03-15 21:47:00,53.4,47.1,30.16,WNW,283,0.0,0.0,79,0.00,,,0.00,meteohub,2013-03-16 01:47:00,
2013-03-15 21:52:00,53.6,47.3,30.16,WNW,283,0.0,1.0,79,0.00,,,0.00,meteohub,2013-03-16 01:52:00,
2013-03-15 21:57:00,53.4,46.8,30.16,WNW,283,0.0,1.0,78,0.00,,,0.00,meteohub,2013-03-16 01:57:00,
2013-03-15 22:02:00,53.2,47.3,30.16,WNW,283,0.0,1.0,80,0.00,,,0.00,meteohub,2013-03-16 02:02:00,
2013-03-15 22:07:00,52.9,46.9,30.17,WNW,283,0.0,0.0,80,0.00,,,0.00,meteohub,2013-03-16 02:07:00,
2013-03-15 22:12:00,52.7,47.1,30.17,WNW,283,0.0,0.0,81,0.00,,,0.00,meteohub,2013-03-16 02:12:00,
2013-03-15 22:17:00,52.3,46.8,30.17,WNW,283,0.0,0.0,81,0.00,,,0.00,meteohub,2013-03-16 02:17:00,
2013-03-15 22:22:00,52.2,46.8,30.17,WNW,283,0.0,0.0,82,0.00,,,0.00,meteohub,2013-03-16 02:22:00,
2013-03-15 22:27:00,52.0,46.9,30.17,WNW,283,0.0,0.0,83,0.00,,,0.00,meteohub,2013-03-16 02:27:00,
2013-03-15 22:32:00,51.6,46.6,30.17,WNW,283,0.0,0.0,83,0.00,,,0.00,meteohub,2013-03-16 02:32:00,
2013-03-15 22:37:00,51.4,46.8,30.17,WNW,283,0.0,0.0,84,0.00,,,0.00,meteohub,2013-03-16 02:37:00,
2013-03-15 22:42:00,51.4,47.1,30.17,WNW,283,0.0,0.0,85,0.00,,,0.00,meteohub,2013-03-16 02:42:00,
2013-03-15 22:48:00,51.3,46.9,30.17,WNW,283,0.0,0.0,85,0.00,,,0.00,meteohub,2013-03-16 02:48:00,
2013-03-15 22:53:00,51.1,46.8,30.17,WNW,283,0.0,0.0,85,0.00,,,0.00,meteohub,2013-03-16 02:53:00,
2013-03-15 22:58:00,51.3,47.5,30.17,WNW,283,0.0,0.0,87,0.00,,,0.00,meteohub,2013-03-16 02:58:00,
2013-03-15 23:03:00,51.4,47.5,30.17,WNW,283,0.0,0.0,86,0.00,,,0.00,meteohub,2013-03-16 03:03:00,
2013-03-15 23:08:00,51.6,47.3,30.17,WNW,283,0.0,0.0,85,0.00,,,0.00,meteohub,2013-03-16 03:08:00,
2013-03-15 23:14:00,51.4,46.8,30.17,WNW,283,0.0,0.0,84,0.00,,,0.00,meteohub,2013-03-16 03:14:00,
2013-03-15 23:19:00,51.4,47.5,30.17,WNW,283,0.0,0.0,86,0.00,,,0.00,meteohub,2013-03-16 03:19:00,
2013-03-15 23:24:00,51.3,46.9,30.17,WNW,283,0.0,0.0,85,0.00,,,0.00,meteohub,2013-03-16 03:24:00,
2013-03-15 23:29:00,51.1,47.3,30.17,WNW,283,0.0,0.0,87,0.00,,,0.00,meteohub,2013-03-16 03:29:00,
2013-03-15 23:34:00,51.1,47.3,30.17,WNW,283,0.0,0.0,87,0.00,,,0.00,meteohub,2013-03-16 03:34:00,
2013-03-15 23:39:00,51.3,47.8,30.17,WNW,283,0.0,0.0,88,0.00,,,0.00,meteohub,2013-03-16 03:39:00,
2013-03-15 23:45:00,51.3,47.5,30.17,WNW,283,0.0,0.0,87,0.00,,,0.00,meteohub,2013-03-16 03:45:00,
2013-03-15 23:50:00,51.3,47.5,30.17,WNW,283,0.0,0.0,87,0.00,,,0.00,meteohub,2013-03-16 03:50:00,
2013-03-15 23:55:00,51.4,47.7,30.17,WNW,283,0.0,0.0,87,0.00,,,0.00,meteohub,2013-03-16 03:55:00,